sensor_id;sensor_type;location;lat;lon;timestamp;P1;durP1;ratioP1;P2;durP2;ratioP2
28934;SDS011;16044;52.726;-2.108;2022-12-05T00:01:24;24.55;;;12.75;;
28934;SDS011;16044;52.726;-2.108;2022-12-05T00:03:57;18.55;;;9.70;;
28934;SDS011;16044;52.726;-2.108;2022-12-05T00:06:28;22.40;;;12.30;;
28934;SDS011;16044;52.726;-2.108;2022-12-05T00:08:56;28.00;;;13.23;;
28934;SDS011;16044;52.726;-2.108;2022-12-05T00:11:25;26.80;;;12.98;;
28934;SDS011;16044;52.726;-2.108;2022-12-05T00:13:55;24.17;;;13.02;;
28934;SDS011;16044;52.726;-2.108;2022-12-05T00:16:26;23.80;;;13.55;;
28934;SDS011;16044;52.726;-2.108;2022-12-05T00:18:57;26.42;;;13.15;;
28934;SDS011;16044;52.726;-2.108;2022-12-05T00:21:27;28.75;;;13.90;;
28934;SDS011;16044;52.726;-2.108;2022-12-05T00:23:57;27.15;;;12.75;;
28934;SDS011;16044;52.726;-2.108;2022-12-05T00:26:26;26.38;;;13.63;;
28934;SDS011;16044;52.726;-2.108;2022-12-05T00:28:53;25.08;;;13.65;;
28934;SDS011;16044;52.726;-2.108;2022-12-05T00:31:21;25.63;;;13.75;;
28934;SDS011;16044;52.726;-2.108;2022-12-05T00:33:50;27.48;;;13.10;;
28934;SDS011;16044;52.726;-2.108;2022-12-05T00:38:45;25.20;;;13.40;;
28934;SDS011;16044;52.726;-2.108;2022-12-05T00:41:15;28.02;;;14.80;;
28934;SDS011;16044;52.726;-2.108;2022-12-05T00:46:16;23.15;;;13.18;;
28934;SDS011;16044;52.726;-2.108;2022-12-05T00:48:46;29.17;;;13.25;;
28934;SDS011;16044;52.726;-2.108;2022-12-05T00:51:18;26.30;;;15.02;;
28934;SDS011;16044;52.726;-2.108;2022-12-05T00:53:52;23.60;;;14.35;;
28934;SDS011;16044;52.726;-2.108;2022-12-05T00:56:23;25.95;;;15.20;;
28934;SDS011;16044;52.726;-2.108;2022-12-05T00:58:52;27.08;;;14.98;;
28934;SDS011;16044;52.726;-2.108;2022-12-05T01:01:21;25.98;;;14.75;;
28934;SDS011;16044;52.726;-2.108;2022-12-05T01:03:58;30.38;;;15.38;;
28934;SDS011;16044;52.726;-2.108;2022-12-05T01:06:29;31.50;;;14.77;;
28934;SDS011;16044;52.726;-2.108;2022-12-05T01:08:56;26.08;;;14.77;;
28934;SDS011;16044;52.726;-2.108;2022-12-05T01:11:24;25.45;;;15.07;;
28934;SDS011;16044;52.726;-2.108;2022-12-05T01:13:52;24.92;;;13.95;;
28934;SDS011;16044;52.726;-2.108;2022-12-05T01:18:56;22.98;;;13.93;;
28934;SDS011;16044;52.726;-2.108;2022-12-05T01:21:24;27.58;;;14.20;;
28934;SDS011;16044;52.726;-2.108;2022-12-05T01:23:52;24.58;;;14.05;;
28934;SDS011;16044;52.726;-2.108;2022-12-05T01:26:19;24.38;;;13.75;;
28934;SDS011;16044;52.726;-2.108;2022-12-05T01:28:48;25.27;;;13.60;;
28934;SDS011;16044;52.726;-2.108;2022-12-05T01:31:24;25.58;;;13.05;;
28934;SDS011;16044;52.726;-2.108;2022-12-05T01:33:58;24.60;;;13.43;;
28934;SDS011;16044;52.726;-2.108;2022-12-05T01:36:27;21.30;;;13.48;;
28934;SDS011;16044;52.726;-2.108;2022-12-05T01:38:55;26.10;;;12.77;;
28934;SDS011;16044;52.726;-2.108;2022-12-05T01:41:27;24.38;;;13.13;;
28934;SDS011;16044;52.726;-2.108;2022-12-05T01:46:54;24.00;;;12.70;;
28934;SDS011;16044;52.726;-2.108;2022-12-05T01:49:26;21.85;;;12.95;;
28934;SDS011;16044;52.726;-2.108;2022-12-05T01:52:04;29.80;;;14.32;;
28934;SDS011;16044;52.726;-2.108;2022-12-05T01:54:44;26.27;;;13.45;;
28934;SDS011;16044;52.726;-2.108;2022-12-05T01:57:13;22.65;;;13.20;;
28934;SDS011;16044;52.726;-2.108;2022-12-05T01:59:43;23.95;;;12.88;;
28934;SDS011;16044;52.726;-2.108;2022-12-05T02:02:13;21.80;;;13.63;;
28934;SDS011;16044;52.726;-2.108;2022-12-05T02:04:50;26.58;;;12.95;;
28934;SDS011;16044;52.726;-2.108;2022-12-05T02:07:51;24.67;;;12.85;;
28934;SDS011;16044;52.726;-2.108;2022-12-05T02:10:18;27.02;;;13.45;;
28934;SDS011;16044;52.726;-2.108;2022-12-05T02:12:45;25.73;;;13.48;;
28934;SDS011;16044;52.726;-2.108;2022-12-05T02:35:48;28.90;;;13.55;;
28934;SDS011;16044;52.726;-2.108;2022-12-05T02:41:18;24.52;;;12.95;;
28934;SDS011;16044;52.726;-2.108;2022-12-05T02:43:53;24.60;;;13.35;;
28934;SDS011;16044;52.726;-2.108;2022-12-05T02:46:35;29.73;;;13.20;;
28934;SDS011;16044;52.726;-2.108;2022-12-05T02:49:06;26.55;;;13.95;;
28934;SDS011;16044;52.726;-2.108;2022-12-05T02:51:46;23.60;;;12.63;;
28934;SDS011;16044;52.726;-2.108;2022-12-05T02:54:28;25.33;;;14.18;;
28934;SDS011;16044;52.726;-2.108;2022-12-05T02:57:00;28.10;;;14.25;;
28934;SDS011;16044;52.726;-2.108;2022-12-05T02:59:28;19.75;;;12.40;;
28934;SDS011;16044;52.726;-2.108;2022-12-05T03:01:55;24.25;;;14.45;;
28934;SDS011;16044;52.726;-2.108;2022-12-05T03:04:23;25.35;;;12.82;;
28934;SDS011;16044;52.726;-2.108;2022-12-05T03:06:58;27.33;;;13.90;;
28934;SDS011;16044;52.726;-2.108;2022-12-05T03:09:32;26.25;;;13.85;;
28934;SDS011;16044;52.726;-2.108;2022-12-05T03:12:09;24.40;;;13.10;;
28934;SDS011;16044;52.726;-2.108;2022-12-05T03:14:52;29.00;;;14.70;;
28934;SDS011;16044;52.726;-2.108;2022-12-05T03:17:36;25.45;;;13.68;;
28934;SDS011;16044;52.726;-2.108;2022-12-05T03:20:26;31.35;;;14.43;;
28934;SDS011;16044;52.726;-2.108;2022-12-05T03:23:14;27.98;;;15.07;;
28934;SDS011;16044;52.726;-2.108;2022-12-05T03:31:45;21.83;;;11.70;;
28934;SDS011;16044;52.726;-2.108;2022-12-05T03:34:25;36.00;;;17.30;;
28934;SDS011;16044;52.726;-2.108;2022-12-05T03:37:01;36.03;;;16.10;;
28934;SDS011;16044;52.726;-2.108;2022-12-05T03:39:36;29.83;;;15.45;;
28934;SDS011;16044;52.726;-2.108;2022-12-05T03:42:11;29.88;;;15.57;;
28934;SDS011;16044;52.726;-2.108;2022-12-05T03:44:50;28.88;;;15.43;;
28934;SDS011;16044;52.726;-2.108;2022-12-05T03:47:25;27.45;;;14.15;;
28934;SDS011;16044;52.726;-2.108;2022-12-05T03:50:21;23.20;;;13.85;;
28934;SDS011;16044;52.726;-2.108;2022-12-05T03:52:53;25.50;;;13.38;;
28934;SDS011;16044;52.726;-2.108;2022-12-05T03:55:46;23.63;;;13.07;;
28934;SDS011;16044;52.726;-2.108;2022-12-05T03:58:25;24.05;;;13.20;;
28934;SDS011;16044;52.726;-2.108;2022-12-05T04:00:58;20.73;;;11.32;;
28934;SDS011;16044;52.726;-2.108;2022-12-05T04:03:34;22.17;;;12.45;;
28934;SDS011;16044;52.726;-2.108;2022-12-05T04:06:18;21.27;;;12.50;;
28934;SDS011;16044;52.726;-2.108;2022-12-05T04:08:53;22.92;;;12.10;;
28934;SDS011;16044;52.726;-2.108;2022-12-05T04:11:26;18.73;;;11.23;;
28934;SDS011;16044;52.726;-2.108;2022-12-05T04:14:00;22.20;;;11.90;;
28934;SDS011;16044;52.726;-2.108;2022-12-05T04:16:38;22.58;;;11.38;;
28934;SDS011;16044;52.726;-2.108;2022-12-05T04:19:30;18.90;;;11.50;;
28934;SDS011;16044;52.726;-2.108;2022-12-05T04:22:31;24.00;;;12.90;;
28934;SDS011;16044;52.726;-2.108;2022-12-05T04:25:00;19.63;;;11.63;;
28934;SDS011;16044;52.726;-2.108;2022-12-05T04:27:49;19.67;;;10.75;;
28934;SDS011;16044;52.726;-2.108;2022-12-05T04:36:32;17.90;;;10.73;;
28934;SDS011;16044;52.726;-2.108;2022-12-05T04:39:12;19.85;;;11.25;;
28934;SDS011;16044;52.726;-2.108;2022-12-05T04:41:50;22.10;;;11.90;;
28934;SDS011;16044;52.726;-2.108;2022-12-05T04:44:24;22.20;;;11.55;;
28934;SDS011;16044;52.726;-2.108;2022-12-05T04:46:57;21.50;;;11.55;;
28934;SDS011;16044;52.726;-2.108;2022-12-05T04:49:29;22.23;;;11.40;;
28934;SDS011;16044;52.726;-2.108;2022-12-05T04:51:59;20.17;;;10.55;;
28934;SDS011;16044;52.726;-2.108;2022-12-05T04:54:31;18.85;;;10.55;;
28934;SDS011;16044;52.726;-2.108;2022-12-05T04:57:12;23.85;;;11.50;;
28934;SDS011;16044;52.726;-2.108;2022-12-05T04:59:46;24.65;;;11.45;;
28934;SDS011;16044;52.726;-2.108;2022-12-05T05:02:17;26.58;;;11.23;;
28934;SDS011;16044;52.726;-2.108;2022-12-05T05:04:54;23.95;;;11.90;;
28934;SDS011;16044;52.726;-2.108;2022-12-05T05:07:24;19.88;;;11.77;;
28934;SDS011;16044;52.726;-2.108;2022-12-05T05:09:50;26.55;;;11.98;;
28934;SDS011;16044;52.726;-2.108;2022-12-05T05:12:17;24.67;;;12.18;;
28934;SDS011;16044;52.726;-2.108;2022-12-05T05:14:44;23.70;;;11.52;;
28934;SDS011;16044;52.726;-2.108;2022-12-05T05:17:11;23.33;;;12.07;;
28934;SDS011;16044;52.726;-2.108;2022-12-05T05:19:38;28.60;;;11.80;;
28934;SDS011;16044;52.726;-2.108;2022-12-05T05:22:05;23.98;;;11.52;;
28934;SDS011;16044;52.726;-2.108;2022-12-05T05:24:32;21.25;;;11.13;;
28934;SDS011;16044;52.726;-2.108;2022-12-05T05:26:58;26.00;;;11.50;;
28934;SDS011;16044;52.726;-2.108;2022-12-05T05:29:25;28.30;;;11.05;;
28934;SDS011;16044;52.726;-2.108;2022-12-05T05:31:52;23.13;;;10.55;;
28934;SDS011;16044;52.726;-2.108;2022-12-05T05:34:19;28.55;;;11.55;;
28934;SDS011;16044;52.726;-2.108;2022-12-05T05:36:49;24.45;;;10.30;;
28934;SDS011;16044;52.726;-2.108;2022-12-05T05:39:18;22.27;;;9.60;;
28934;SDS011;16044;52.726;-2.108;2022-12-05T05:41:45;20.15;;;9.77;;
28934;SDS011;16044;52.726;-2.108;2022-12-05T05:44:12;28.92;;;10.35;;
28934;SDS011;16044;52.726;-2.108;2022-12-05T05:46:38;19.27;;;9.50;;
28934;SDS011;16044;52.726;-2.108;2022-12-05T05:49:05;23.33;;;10.60;;
28934;SDS011;16044;52.726;-2.108;2022-12-05T05:51:32;31.08;;;9.10;;
28934;SDS011;16044;52.726;-2.108;2022-12-05T05:54:00;20.08;;;9.02;;
28934;SDS011;16044;52.726;-2.108;2022-12-05T05:56:27;17.27;;;8.10;;
28934;SDS011;16044;52.726;-2.108;2022-12-05T05:58:58;22.85;;;7.63;;
28934;SDS011;16044;52.726;-2.108;2022-12-05T06:01:28;17.30;;;7.07;;
28934;SDS011;16044;52.726;-2.108;2022-12-05T06:03:56;22.50;;;7.38;;
28934;SDS011;16044;52.726;-2.108;2022-12-05T06:06:24;22.27;;;7.15;;
28934;SDS011;16044;52.726;-2.108;2022-12-05T06:08:51;19.05;;;7.15;;
28934;SDS011;16044;52.726;-2.108;2022-12-05T06:11:21;18.42;;;6.88;;
28934;SDS011;16044;52.726;-2.108;2022-12-05T06:13:53;17.08;;;5.90;;
28934;SDS011;16044;52.726;-2.108;2022-12-05T06:16:21;13.30;;;5.68;;
28934;SDS011;16044;52.726;-2.108;2022-12-05T06:18:50;17.10;;;5.50;;
28934;SDS011;16044;52.726;-2.108;2022-12-05T06:21:17;22.52;;;5.30;;
28934;SDS011;16044;52.726;-2.108;2022-12-05T06:23:45;15.00;;;5.40;;
28934;SDS011;16044;52.726;-2.108;2022-12-05T06:26:13;14.40;;;5.35;;
28934;SDS011;16044;52.726;-2.108;2022-12-05T06:28:43;13.32;;;5.10;;
28934;SDS011;16044;52.726;-2.108;2022-12-05T06:31:15;14.27;;;4.78;;
28934;SDS011;16044;52.726;-2.108;2022-12-05T06:33:45;15.32;;;5.00;;
28934;SDS011;16044;52.726;-2.108;2022-12-05T06:36:14;20.33;;;4.55;;
28934;SDS011;16044;52.726;-2.108;2022-12-05T06:38:44;10.55;;;4.80;;
28934;SDS011;16044;52.726;-2.108;2022-12-05T06:41:16;11.50;;;4.13;;
28934;SDS011;16044;52.726;-2.108;2022-12-05T06:43:45;15.63;;;4.60;;
28934;SDS011;16044;52.726;-2.108;2022-12-05T06:46:13;14.93;;;5.05;;
28934;SDS011;16044;52.726;-2.108;2022-12-05T06:48:41;16.55;;;4.35;;
28934;SDS011;16044;52.726;-2.108;2022-12-05T06:51:09;14.05;;;4.07;;
28934;SDS011;16044;52.726;-2.108;2022-12-05T06:53:40;13.68;;;4.35;;
28934;SDS011;16044;52.726;-2.108;2022-12-05T06:56:11;14.73;;;4.03;;
28934;SDS011;16044;52.726;-2.108;2022-12-05T06:58:46;15.35;;;4.13;;
28934;SDS011;16044;52.726;-2.108;2022-12-05T07:01:16;13.05;;;3.88;;
28934;SDS011;16044;52.726;-2.108;2022-12-05T07:04:12;19.75;;;3.80;;
28934;SDS011;16044;52.726;-2.108;2022-12-05T07:06:50;10.73;;;3.90;;
28934;SDS011;16044;52.726;-2.108;2022-12-05T07:09:20;12.50;;;3.70;;
28934;SDS011;16044;52.726;-2.108;2022-12-05T07:12:11;12.30;;;4.40;;
28934;SDS011;16044;52.726;-2.108;2022-12-05T07:14:41;14.57;;;4.22;;
28934;SDS011;16044;52.726;-2.108;2022-12-05T07:17:14;20.80;;;4.18;;
28934;SDS011;16044;52.726;-2.108;2022-12-05T07:19:48;16.88;;;4.10;;
28934;SDS011;16044;52.726;-2.108;2022-12-05T07:22:18;13.23;;;4.07;;
28934;SDS011;16044;52.726;-2.108;2022-12-05T07:24:46;18.73;;;5.53;;
28934;SDS011;16044;52.726;-2.108;2022-12-05T07:27:14;10.82;;;4.00;;
28934;SDS011;16044;52.726;-2.108;2022-12-05T07:29:45;16.65;;;4.18;;
28934;SDS011;16044;52.726;-2.108;2022-12-05T07:32:12;15.75;;;4.15;;
28934;SDS011;16044;52.726;-2.108;2022-12-05T07:34:39;11.75;;;4.35;;
28934;SDS011;16044;52.726;-2.108;2022-12-05T07:37:07;17.40;;;4.32;;
28934;SDS011;16044;52.726;-2.108;2022-12-05T07:39:34;14.88;;;4.22;;
28934;SDS011;16044;52.726;-2.108;2022-12-05T07:42:01;14.63;;;4.00;;
28934;SDS011;16044;52.726;-2.108;2022-12-05T07:44:27;14.70;;;4.63;;
28934;SDS011;16044;52.726;-2.108;2022-12-05T07:46:56;16.48;;;4.82;;
28934;SDS011;16044;52.726;-2.108;2022-12-05T07:49:23;16.05;;;4.45;;
28934;SDS011;16044;52.726;-2.108;2022-12-05T07:51:50;13.23;;;4.32;;
28934;SDS011;16044;52.726;-2.108;2022-12-05T07:54:18;13.10;;;4.10;;
28934;SDS011;16044;52.726;-2.108;2022-12-05T07:56:44;10.90;;;4.43;;
28934;SDS011;16044;52.726;-2.108;2022-12-05T07:59:13;13.75;;;4.10;;
28934;SDS011;16044;52.726;-2.108;2022-12-05T08:01:40;15.90;;;4.88;;
28934;SDS011;16044;52.726;-2.108;2022-12-05T08:04:07;13.73;;;4.30;;
28934;SDS011;16044;52.726;-2.108;2022-12-05T08:06:40;17.58;;;4.60;;
28934;SDS011;16044;52.726;-2.108;2022-12-05T08:09:07;11.63;;;4.22;;
28934;SDS011;16044;52.726;-2.108;2022-12-05T08:11:34;14.27;;;4.50;;
28934;SDS011;16044;52.726;-2.108;2022-12-05T08:14:02;15.50;;;4.50;;
28934;SDS011;16044;52.726;-2.108;2022-12-05T08:16:31;15.95;;;4.90;;
28934;SDS011;16044;52.726;-2.108;2022-12-05T08:18:59;11.98;;;4.60;;
28934;SDS011;16044;52.726;-2.108;2022-12-05T08:21:29;15.02;;;4.30;;
28934;SDS011;16044;52.726;-2.108;2022-12-05T08:23:57;13.25;;;5.00;;
28934;SDS011;16044;52.726;-2.108;2022-12-05T08:26:27;17.25;;;5.00;;
28934;SDS011;16044;52.726;-2.108;2022-12-05T08:28:57;11.35;;;5.43;;
28934;SDS011;16044;52.726;-2.108;2022-12-05T08:31:31;16.92;;;5.97;;
28934;SDS011;16044;52.726;-2.108;2022-12-05T08:34:01;15.90;;;5.78;;
28934;SDS011;16044;52.726;-2.108;2022-12-05T08:36:28;15.65;;;5.28;;
28934;SDS011;16044;52.726;-2.108;2022-12-05T08:38:57;15.13;;;4.80;;
28934;SDS011;16044;52.726;-2.108;2022-12-05T08:41:27;15.70;;;5.28;;
28934;SDS011;16044;52.726;-2.108;2022-12-05T08:43:56;14.20;;;4.30;;
28934;SDS011;16044;52.726;-2.108;2022-12-05T08:46:29;13.98;;;4.50;;
28934;SDS011;16044;52.726;-2.108;2022-12-05T08:48:57;15.40;;;4.72;;
28934;SDS011;16044;52.726;-2.108;2022-12-05T08:51:24;14.05;;;4.55;;
28934;SDS011;16044;52.726;-2.108;2022-12-05T08:53:51;14.30;;;4.35;;
28934;SDS011;16044;52.726;-2.108;2022-12-05T08:56:19;17.45;;;4.50;;
28934;SDS011;16044;52.726;-2.108;2022-12-05T08:58:52;18.98;;;4.38;;
28934;SDS011;16044;52.726;-2.108;2022-12-05T09:01:28;10.43;;;4.13;;
28934;SDS011;16044;52.726;-2.108;2022-12-05T09:03:59;14.68;;;4.53;;
28934;SDS011;16044;52.726;-2.108;2022-12-05T09:06:27;14.02;;;3.90;;
28934;SDS011;16044;52.726;-2.108;2022-12-05T09:08:56;15.68;;;4.28;;
28934;SDS011;16044;52.726;-2.108;2022-12-05T09:11:26;20.10;;;4.60;;
28934;SDS011;16044;52.726;-2.108;2022-12-05T09:13:58;16.15;;;4.55;;
28934;SDS011;16044;52.726;-2.108;2022-12-05T09:16:28;20.05;;;4.60;;
28934;SDS011;16044;52.726;-2.108;2022-12-05T09:19:03;13.90;;;4.15;;
28934;SDS011;16044;52.726;-2.108;2022-12-05T09:21:41;15.00;;;4.22;;
28934;SDS011;16044;52.726;-2.108;2022-12-05T09:24:10;12.57;;;3.72;;
28934;SDS011;16044;52.726;-2.108;2022-12-05T09:26:39;13.63;;;4.25;;
28934;SDS011;16044;52.726;-2.108;2022-12-05T09:29:06;13.23;;;4.43;;
28934;SDS011;16044;52.726;-2.108;2022-12-05T09:34:09;13.70;;;4.30;;
28934;SDS011;16044;52.726;-2.108;2022-12-05T09:36:36;12.48;;;3.92;;
28934;SDS011;16044;52.726;-2.108;2022-12-05T09:39:03;16.17;;;4.80;;
28934;SDS011;16044;52.726;-2.108;2022-12-05T09:50:21;16.35;;;4.30;;
28934;SDS011;16044;52.726;-2.108;2022-12-05T09:55:36;17.38;;;6.75;;
28934;SDS011;16044;52.726;-2.108;2022-12-05T10:07:00;20.15;;;7.20;;
28934;SDS011;16044;52.726;-2.108;2022-12-05T10:09:47;12.50;;;4.72;;
28934;SDS011;16044;52.726;-2.108;2022-12-05T10:18:01;17.65;;;6.72;;
28934;SDS011;16044;52.726;-2.108;2022-12-05T10:20:41;15.00;;;6.00;;
28934;SDS011;16044;52.726;-2.108;2022-12-05T10:23:17;10.30;;;4.63;;
28934;SDS011;16044;52.726;-2.108;2022-12-05T10:26:12;12.70;;;4.70;;
28934;SDS011;16044;52.726;-2.108;2022-12-05T10:31:35;14.00;;;6.22;;
28934;SDS011;16044;52.726;-2.108;2022-12-05T10:34:14;36.50;;;21.33;;
28934;SDS011;16044;52.726;-2.108;2022-12-05T10:36:57;14.82;;;6.53;;
28934;SDS011;16044;52.726;-2.108;2022-12-05T10:39:46;18.40;;;7.53;;
28934;SDS011;16044;52.726;-2.108;2022-12-05T10:42:28;19.98;;;7.80;;
28934;SDS011;16044;52.726;-2.108;2022-12-05T10:44:58;13.55;;;4.53;;
28934;SDS011;16044;52.726;-2.108;2022-12-05T10:47:31;13.55;;;4.25;;
28934;SDS011;16044;52.726;-2.108;2022-12-05T10:50:02;12.55;;;4.25;;
28934;SDS011;16044;52.726;-2.108;2022-12-05T10:52:54;11.40;;;4.45;;
28934;SDS011;16044;52.726;-2.108;2022-12-05T10:55:25;17.08;;;5.60;;
28934;SDS011;16044;52.726;-2.108;2022-12-05T10:58:15;13.65;;;5.03;;
28934;SDS011;16044;52.726;-2.108;2022-12-05T11:00:51;19.98;;;7.28;;
28934;SDS011;16044;52.726;-2.108;2022-12-05T11:06:01;21.00;;;6.60;;
28934;SDS011;16044;52.726;-2.108;2022-12-05T11:09:01;17.38;;;5.47;;
28934;SDS011;16044;52.726;-2.108;2022-12-05T11:11:59;14.63;;;4.13;;
28934;SDS011;16044;52.726;-2.108;2022-12-05T11:14:29;16.85;;;5.43;;
28934;SDS011;16044;52.726;-2.108;2022-12-05T11:16:59;11.45;;;4.38;;
28934;SDS011;16044;52.726;-2.108;2022-12-05T11:22:01;16.85;;;5.57;;
28934;SDS011;16044;52.726;-2.108;2022-12-05T11:24:34;17.23;;;6.22;;
28934;SDS011;16044;52.726;-2.108;2022-12-05T11:32:41;13.23;;;4.97;;
28934;SDS011;16044;52.726;-2.108;2022-12-05T11:46:14;16.63;;;4.40;;
28934;SDS011;16044;52.726;-2.108;2022-12-05T11:49:20;19.00;;;4.90;;
28934;SDS011;16044;52.726;-2.108;2022-12-05T12:07:00;13.50;;;4.90;;
28934;SDS011;16044;52.726;-2.108;2022-12-05T12:09:46;17.10;;;5.18;;
28934;SDS011;16044;52.726;-2.108;2022-12-05T12:18:16;17.73;;;4.97;;
28934;SDS011;16044;52.726;-2.108;2022-12-05T12:38:39;15.80;;;4.72;;
28934;SDS011;16044;52.726;-2.108;2022-12-05T13:02:03;16.23;;;5.47;;
28934;SDS011;16044;52.726;-2.108;2022-12-05T13:04:56;20.58;;;5.70;;
28934;SDS011;16044;52.726;-2.108;2022-12-05T13:07:34;15.35;;;5.53;;
28934;SDS011;16044;52.726;-2.108;2022-12-05T13:10:12;18.52;;;5.65;;
28934;SDS011;16044;52.726;-2.108;2022-12-05T13:13:03;16.30;;;5.67;;
28934;SDS011;16044;52.726;-2.108;2022-12-05T13:15:33;18.95;;;5.97;;
28934;SDS011;16044;52.726;-2.108;2022-12-05T13:18:06;15.43;;;5.00;;
28934;SDS011;16044;52.726;-2.108;2022-12-05T13:20:42;12.05;;;5.18;;
28934;SDS011;16044;52.726;-2.108;2022-12-05T13:23:14;12.90;;;5.93;;
28934;SDS011;16044;52.726;-2.108;2022-12-05T13:25:45;19.95;;;5.45;;
28934;SDS011;16044;52.726;-2.108;2022-12-05T13:28:48;17.23;;;5.75;;
28934;SDS011;16044;52.726;-2.108;2022-12-05T13:31:32;20.25;;;5.72;;
28934;SDS011;16044;52.726;-2.108;2022-12-05T13:34:05;19.90;;;5.60;;
28934;SDS011;16044;52.726;-2.108;2022-12-05T13:40:18;14.98;;;5.32;;
28934;SDS011;16044;52.726;-2.108;2022-12-05T13:43:21;15.77;;;5.30;;
28934;SDS011;16044;52.726;-2.108;2022-12-05T13:48:36;18.85;;;5.28;;
28934;SDS011;16044;52.726;-2.108;2022-12-05T13:51:07;20.02;;;4.72;;
28934;SDS011;16044;52.726;-2.108;2022-12-05T13:53:47;13.85;;;5.30;;
28934;SDS011;16044;52.726;-2.108;2022-12-05T13:56:27;16.35;;;5.40;;
28934;SDS011;16044;52.726;-2.108;2022-12-05T14:07:50;18.27;;;5.70;;
28934;SDS011;16044;52.726;-2.108;2022-12-05T14:13:00;16.88;;;4.95;;
28934;SDS011;16044;52.726;-2.108;2022-12-05T14:15:49;14.80;;;4.93;;
28934;SDS011;16044;52.726;-2.108;2022-12-05T14:18:19;19.23;;;5.55;;
28934;SDS011;16044;52.726;-2.108;2022-12-05T14:32:45;17.30;;;5.60;;
28934;SDS011;16044;52.726;-2.108;2022-12-05T14:35:13;18.83;;;6.00;;
28934;SDS011;16044;52.726;-2.108;2022-12-05T14:38:00;17.00;;;5.35;;
28934;SDS011;16044;52.726;-2.108;2022-12-05T14:48:29;15.20;;;5.55;;
28934;SDS011;16044;52.726;-2.108;2022-12-05T14:54:02;16.38;;;6.20;;
28934;SDS011;16044;52.726;-2.108;2022-12-05T14:56:29;13.90;;;5.70;;
28934;SDS011;16044;52.726;-2.108;2022-12-05T14:59:01;15.80;;;5.63;;
28934;SDS011;16044;52.726;-2.108;2022-12-05T15:02:03;13.32;;;5.65;;
28934;SDS011;16044;52.726;-2.108;2022-12-05T15:07:14;12.05;;;5.18;;
28934;SDS011;16044;52.726;-2.108;2022-12-05T15:12:28;17.48;;;5.93;;
28934;SDS011;16044;52.726;-2.108;2022-12-05T15:17:43;11.52;;;5.18;;
28934;SDS011;16044;52.726;-2.108;2022-12-05T15:20:16;13.10;;;5.10;;
28934;SDS011;16044;52.726;-2.108;2022-12-05T15:22:47;15.95;;;5.50;;
28934;SDS011;16044;52.726;-2.108;2022-12-05T15:25:25;16.48;;;5.63;;
28934;SDS011;16044;52.726;-2.108;2022-12-05T15:28:01;16.58;;;5.32;;
28934;SDS011;16044;52.726;-2.108;2022-12-05T15:30:45;15.93;;;6.28;;
28934;SDS011;16044;52.726;-2.108;2022-12-05T15:33:21;15.85;;;5.70;;
28934;SDS011;16044;52.726;-2.108;2022-12-05T15:35:50;25.67;;;5.90;;
28934;SDS011;16044;52.726;-2.108;2022-12-05T15:38:24;17.05;;;5.68;;
28934;SDS011;16044;52.726;-2.108;2022-12-05T15:40:55;24.40;;;6.45;;
28934;SDS011;16044;52.726;-2.108;2022-12-05T15:43:29;18.20;;;5.88;;
28934;SDS011;16044;52.726;-2.108;2022-12-05T15:46:17;17.40;;;6.05;;
28934;SDS011;16044;52.726;-2.108;2022-12-05T15:48:50;14.20;;;5.82;;
28934;SDS011;16044;52.726;-2.108;2022-12-05T15:51:19;13.23;;;5.70;;
28934;SDS011;16044;52.726;-2.108;2022-12-05T15:53:54;11.53;;;4.50;;
28934;SDS011;16044;52.726;-2.108;2022-12-05T15:59:38;17.27;;;5.80;;
28934;SDS011;16044;52.726;-2.108;2022-12-05T16:02:13;13.95;;;5.40;;
28934;SDS011;16044;52.726;-2.108;2022-12-05T16:04:51;15.55;;;6.10;;
28934;SDS011;16044;52.726;-2.108;2022-12-05T16:07:22;13.02;;;5.50;;
28934;SDS011;16044;52.726;-2.108;2022-12-05T16:09:54;15.23;;;6.13;;
28934;SDS011;16044;52.726;-2.108;2022-12-05T16:12:32;15.80;;;6.35;;
28934;SDS011;16044;52.726;-2.108;2022-12-05T16:15:08;20.60;;;5.60;;
28934;SDS011;16044;52.726;-2.108;2022-12-05T16:17:47;14.98;;;5.63;;
28934;SDS011;16044;52.726;-2.108;2022-12-05T16:22:59;15.77;;;5.55;;
28934;SDS011;16044;52.726;-2.108;2022-12-05T16:25:34;14.07;;;5.75;;
28934;SDS011;16044;52.726;-2.108;2022-12-05T16:30:36;16.30;;;5.53;;
28934;SDS011;16044;52.726;-2.108;2022-12-05T16:33:14;13.00;;;5.40;;
28934;SDS011;16044;52.726;-2.108;2022-12-05T16:35:42;11.38;;;5.65;;
28934;SDS011;16044;52.726;-2.108;2022-12-05T16:38:24;14.30;;;5.47;;
28934;SDS011;16044;52.726;-2.108;2022-12-05T16:40:56;11.18;;;4.75;;
28934;SDS011;16044;52.726;-2.108;2022-12-05T16:48:39;9.35;;;4.60;;
28934;SDS011;16044;52.726;-2.108;2022-12-05T16:53:36;10.43;;;4.50;;
28934;SDS011;16044;52.726;-2.108;2022-12-05T16:56:05;11.30;;;4.30;;
28934;SDS011;16044;52.726;-2.108;2022-12-05T16:58:36;10.43;;;4.15;;
28934;SDS011;16044;52.726;-2.108;2022-12-05T17:01:04;13.30;;;4.80;;
28934;SDS011;16044;52.726;-2.108;2022-12-05T17:03:32;11.13;;;4.70;;
28934;SDS011;16044;52.726;-2.108;2022-12-05T17:06:01;9.77;;;4.95;;
28934;SDS011;16044;52.726;-2.108;2022-12-05T17:08:28;9.93;;;4.32;;
28934;SDS011;16044;52.726;-2.108;2022-12-05T17:10:55;9.48;;;4.43;;
28934;SDS011;16044;52.726;-2.108;2022-12-05T17:13:23;11.80;;;4.53;;
28934;SDS011;16044;52.726;-2.108;2022-12-05T17:15:50;10.73;;;5.10;;
28934;SDS011;16044;52.726;-2.108;2022-12-05T17:18:18;10.32;;;4.28;;
28934;SDS011;16044;52.726;-2.108;2022-12-05T17:20:53;13.00;;;5.03;;
28934;SDS011;16044;52.726;-2.108;2022-12-05T17:23:22;9.57;;;4.82;;
28934;SDS011;16044;52.726;-2.108;2022-12-05T17:25:50;10.70;;;4.90;;
28934;SDS011;16044;52.726;-2.108;2022-12-05T17:28:20;12.20;;;5.15;;
28934;SDS011;16044;52.726;-2.108;2022-12-05T17:30:48;14.43;;;5.85;;
28934;SDS011;16044;52.726;-2.108;2022-12-05T17:33:17;14.38;;;4.40;;
28934;SDS011;16044;52.726;-2.108;2022-12-05T17:35:45;10.80;;;5.05;;
28934;SDS011;16044;52.726;-2.108;2022-12-05T17:38:12;12.73;;;5.40;;
28934;SDS011;16044;52.726;-2.108;2022-12-05T17:40:39;16.27;;;5.40;;
28934;SDS011;16044;52.726;-2.108;2022-12-05T17:43:09;11.98;;;4.82;;
28934;SDS011;16044;52.726;-2.108;2022-12-05T17:45:42;14.18;;;6.25;;
28934;SDS011;16044;52.726;-2.108;2022-12-05T17:48:12;15.38;;;5.68;;
28934;SDS011;16044;52.726;-2.108;2022-12-05T17:50:41;16.08;;;5.80;;
28934;SDS011;16044;52.726;-2.108;2022-12-05T17:53:12;17.48;;;5.57;;
28934;SDS011;16044;52.726;-2.108;2022-12-05T17:55:44;9.60;;;5.55;;
28934;SDS011;16044;52.726;-2.108;2022-12-05T17:58:14;11.80;;;4.97;;
28934;SDS011;16044;52.726;-2.108;2022-12-05T18:00:42;13.38;;;6.03;;
28934;SDS011;16044;52.726;-2.108;2022-12-05T18:03:11;16.83;;;6.38;;
28934;SDS011;16044;52.726;-2.108;2022-12-05T18:05:41;14.18;;;5.63;;
28934;SDS011;16044;52.726;-2.108;2022-12-05T18:08:08;15.23;;;5.18;;
28934;SDS011;16044;52.726;-2.108;2022-12-05T18:10:39;12.32;;;5.18;;
28934;SDS011;16044;52.726;-2.108;2022-12-05T18:13:08;10.43;;;5.28;;
28934;SDS011;16044;52.726;-2.108;2022-12-05T18:15:36;12.52;;;5.25;;
28934;SDS011;16044;52.726;-2.108;2022-12-05T18:18:15;14.75;;;5.32;;
28934;SDS011;16044;52.726;-2.108;2022-12-05T18:20:43;12.13;;;5.05;;
28934;SDS011;16044;52.726;-2.108;2022-12-05T18:23:10;15.75;;;5.82;;
28934;SDS011;16044;52.726;-2.108;2022-12-05T18:25:38;21.42;;;6.43;;
28934;SDS011;16044;52.726;-2.108;2022-12-05T18:28:05;13.23;;;5.78;;
28934;SDS011;16044;52.726;-2.108;2022-12-05T18:30:32;12.75;;;5.70;;
28934;SDS011;16044;52.726;-2.108;2022-12-05T18:32:59;16.73;;;6.40;;
28934;SDS011;16044;52.726;-2.108;2022-12-05T18:35:26;26.48;;;8.32;;